Time;durP1;ratioP1;P1;durP2;ratioP2;P2;SDS_P1;SDS_P2;PMS_P1;PMS_P2;Temp;Humidity;BMP_temperature;BMP_pressure;BME280_temperature;BME280_humidity;BME280_pressure;Samples;Min_cycle;Max_cycle;Signal;HPM_P1;HPM_P2
2022/08/23 00:01:21;;;;;;;;;1.00;1.00;;;;;;;;5117388;27;46197;-68
2022/08/23 00:03:47;;;;;;;;;2.00;2.00;;;;;;;;5119345;27;45476;-66
2022/08/23 00:06:12;;;;;;;;;1.00;1.00;;;;;;;;5119837;27;45300;-66
2022/08/23 00:08:38;;;;;;;;;1.67;1.67;;;;;;;;5119755;27;45629;-66
2022/08/23 00:11:03;;;;;;;;;4.33;3.00;;;;;;;;5120787;27;45393;-66
2022/08/23 00:13:30;;;;;;;;;1.67;1.67;;;;;;;;5121197;27;45967;-66
2022/08/23 00:15:56;;;;;;;;;4.00;3.00;;;;;;;;5121291;27;45320;-65
2022/08/23 00:18:23;;;;;;;;;2.33;2.00;;;;;;;;5122549;27;45634;-66
2022/08/23 00:20:48;;;;;;;;;1.00;1.00;;;;;;;;5124820;27;45508;-66
2022/08/23 00:23:13;;;;;;;;;2.67;2.67;;;;;;;;5117949;27;45329;-66
2022/08/23 00:25:38;;;;;;;;;1.00;1.00;;;;;;;;5108156;27;45288;-66
2022/08/23 00:28:04;;;;;;;;;2.00;2.00;;;;;;;;5111338;27;45389;-66
2022/08/23 00:30:30;;;;;;;;;2.33;1.00;;;;;;;;5114302;27;45200;-65
2022/08/23 00:32:55;;;;;;;;;1.00;1.00;;;;;;;;5110461;27;45398;-66
2022/08/23 00:35:21;;;;;;;;;2.00;2.00;;;;;;;;5116558;27;45379;-66
2022/08/23 00:37:46;;;;;;;;;1.00;1.00;;;;;;;;5111302;27;45409;-66
2022/08/23 00:40:13;;;;;;;;;1.33;1.33;;;;;;;;5118484;27;46249;-66
2022/08/23 00:48:13;;;;;;;;;1.67;1.67;;;;;;;;5115740;27;45411;-66
2022/08/23 00:50:52;;;;;;;;;2.33;2.33;;;;;;;;5113182;27;46100;-66
2022/08/23 00:53:23;;;;;;;;;1.67;0.67;;;;;;;;5113043;27;45330;-66
2022/08/23 00:55:49;;;;;;;;;3.00;1.33;;;;;;;;5114253;27;45474;-66
2022/08/23 00:58:17;;;;;;;;;0.33;0.33;;;;;;;;5115775;27;45441;-66
2022/08/23 01:00:42;;;;;;;;;1.33;1.33;;;;;;;;5114664;27;46643;-66
2022/08/23 01:03:09;;;;;;;;;1.00;1.00;;;;;;;;5118402;27;45457;-65
2022/08/23 01:05:41;;;;;;;;;1.00;1.00;;;;;;;;5117799;27;45339;-66
2022/08/23 01:08:07;;;;;;;;;1.33;1.33;;;;;;;;5118483;27;45466;-66
2022/08/23 01:10:38;;;;;;;;;1.00;1.00;;;;;;;;5119495;27;45383;-66
2022/08/23 01:13:23;;;;;;;;;1.00;1.00;;;;;;;;5119430;27;45308;-66
2022/08/23 01:15:56;;;;;;;;;1.00;1.00;;;;;;;;5120946;27;45379;-66
2022/08/23 01:18:23;;;;;;;;;4.00;2.00;;;;;;;;5121547;27;45363;-66
2022/08/23 01:20:58;;;;;;;;;1.67;1.67;;;;;;;;5123679;27;45429;-66
2022/08/23 01:23:35;;;;;;;;;2.00;2.00;;;;;;;;5115615;27;45377;-66
2022/08/23 01:26:00;;;;;;;;;1.00;1.00;;;;;;;;5107191;27;45286;-66
2022/08/23 01:28:25;;;;;;;;;1.67;1.67;;;;;;;;5115662;27;45252;-66
2022/08/23 01:30:51;;;;;;;;;0.67;0.67;;;;;;;;5109598;27;45553;-66
2022/08/23 01:33:16;;;;;;;;;1.67;1.67;;;;;;;;5113119;27;45408;-66
2022/08/23 01:35:43;;;;;;;;;1.00;1.00;;;;;;;;5114560;27;45283;-66
2022/08/23 01:38:08;;;;;;;;;2.00;2.00;;;;;;;;5110396;27;45525;-66
2022/08/23 01:40:36;;;;;;;;;5.00;5.00;;;;;;;;5117365;27;45410;-65
2022/08/23 01:43:01;;;;;;;;;3.33;3.33;;;;;;;;5111226;27;45454;-67
2022/08/23 01:45:27;;;;;;;;;1.67;1.67;;;;;;;;5123684;27;45310;-66
2022/08/23 01:47:52;;;;;;;;;2.00;2.00;;;;;;;;5115873;27;45533;-66
2022/08/23 01:50:17;;;;;;;;;1.00;1.00;;;;;;;;5112811;27;46890;-67
2022/08/23 01:52:43;;;;;;;;;1.33;1.33;;;;;;;;5108214;27;45344;-65
2022/08/23 01:55:09;;;;;;;;;2.00;2.00;;;;;;;;5117317;27;45479;-66
2022/08/23 01:57:34;;;;;;;;;2.00;2.00;;;;;;;;5110267;27;45341;-66
2022/08/23 02:00:00;;;;;;;;;2.33;1.00;;;;;;;;5119065;27;46486;-66
2022/08/23 02:02:25;;;;;;;;;1.67;1.67;;;;;;;;5110754;27;45264;-66
2022/08/23 02:04:51;;;;;;;;;1.00;1.00;;;;;;;;5120858;27;45436;-66
2022/08/23 02:07:17;;;;;;;;;1.00;1.00;;;;;;;;5114680;27;45404;-66
2022/08/23 02:09:42;;;;;;;;;1.67;1.00;;;;;;;;5120025;27;46085;-66
2022/08/23 02:12:07;;;;;;;;;3.00;3.00;;;;;;;;5117488;27;45761;-65
2022/08/23 02:14:33;;;;;;;;;3.00;3.00;;;;;;;;5122483;27;45403;-66
2022/08/23 02:16:59;;;;;;;;;2.33;2.33;;;;;;;;5123583;27;45509;-66
2022/08/23 02:19:24;;;;;;;;;1.33;1.33;;;;;;;;5124992;27;45386;-66
2022/08/23 02:21:50;;;;;;;;;2.33;1.00;;;;;;;;5124378;27;45329;-66
2022/08/23 02:24:17;;;;;;;;;1.00;1.00;;;;;;;;5115714;27;45462;-65
2022/08/23 02:26:47;;;;;;;;;1.00;1.00;;;;;;;;5116891;27;45419;-66
2022/08/23 02:29:13;;;;;;;;;1.67;1.67;;;;;;;;5118756;27;45427;-66
2022/08/23 02:31:38;;;;;;;;;3.33;2.00;;;;;;;;5109736;27;45343;-66
2022/08/23 02:34:04;;;;;;;;;2.33;2.33;;;;;;;;5121351;27;45392;-66
2022/08/23 02:36:30;;;;;;;;;1.00;1.00;;;;;;;;5112923;27;45462;-66
2022/08/23 02:38:55;;;;;;;;;4.00;4.00;;;;;;;;5119275;27;46740;-66
2022/08/23 02:41:21;;;;;;;;;2.00;2.00;;;;;;;;5115407;27;45425;-66
2022/08/23 02:43:46;;;;;;;;;1.33;1.33;;;;;;;;5118807;27;45412;-66
2022/08/23 02:46:11;;;;;;;;;2.00;2.00;;;;;;;;5114043;27;45300;-65
2022/08/23 02:48:37;;;;;;;;;1.00;1.00;;;;;;;;5116927;27;47238;-65
2022/08/23 02:51:06;;;;;;;;;3.67;2.00;;;;;;;;5108896;27;45342;-66
2022/08/23 02:53:32;;;;;;;;;1.00;1.00;;;;;;;;5115033;27;45316;-66
2022/08/23 02:55:57;;;;;;;;;1.33;1.33;;;;;;;;5120492;27;45375;-65
2022/08/23 02:58:23;;;;;;;;;1.00;1.00;;;;;;;;5116859;27;45383;-66
2022/08/23 03:00:48;;;;;;;;;2.00;2.00;;;;;;;;5122033;27;45406;-65
2022/08/23 03:03:14;;;;;;;;;2.00;2.00;;;;;;;;5118138;27;45463;-66
2022/08/23 03:05:39;;;;;;;;;2.67;2.00;;;;;;;;5117749;27;45352;-65
2022/08/23 03:08:04;;;;;;;;;2.00;2.00;;;;;;;;5116396;27;45915;-66
2022/08/23 03:10:30;;;;;;;;;1.00;1.00;;;;;;;;5118032;27;45382;-65
2022/08/23 03:12:55;;;;;;;;;1.00;1.00;;;;;;;;5120144;27;45606;-66
2022/08/23 03:15:20;;;;;;;;;1.67;1.67;;;;;;;;5125189;27;45307;-66
2022/08/23 03:17:45;;;;;;;;;1.00;1.00;;;;;;;;5120958;27;45496;-66
2022/08/23 03:20:10;;;;;;;;;1.67;1.00;;;;;;;;5126069;27;45430;-65
2022/08/23 03:22:36;;;;;;;;;2.33;2.33;;;;;;;;5123289;27;45374;-65
2022/08/23 03:25:02;;;;;;;;;1.67;1.00;;;;;;;;5108000;27;45323;-66
2022/08/23 03:27:30;;;;;;;;;0.33;0.33;;;;;;;;5109227;27;46410;-66
2022/08/23 03:29:55;;;;;;;;;1.67;1.67;;;;;;;;5120547;27;45937;-65
2022/08/23 03:32:20;;;;;;;;;1.00;1.00;;;;;;;;5114569;27;45134;-66
2022/08/23 03:34:45;;;;;;;;;1.33;1.00;;;;;;;;5117050;27;45393;-65
2022/08/23 03:37:11;;;;;;;;;1.00;1.00;;;;;;;;5113996;27;46258;-66
2022/08/23 03:39:36;;;;;;;;;1.00;1.00;;;;;;;;5117018;27;45277;-66
2022/08/23 03:42:01;;;;;;;;;1.00;1.00;;;;;;;;5115954;27;45659;-66
2022/08/23 03:44:26;;;;;;;;;1.00;1.00;;;;;;;;5121670;27;45323;-66
2022/08/23 03:46:51;;;;;;;;;1.00;1.00;;;;;;;;5108005;27;45501;-66
2022/08/23 03:49:17;;;;;;;;;2.00;1.00;;;;;;;;5119770;27;47160;-66
2022/08/23 03:51:42;;;;;;;;;3.33;2.00;;;;;;;;5125055;27;45497;-65
2022/08/23 03:54:07;;;;;;;;;4.00;2.00;;;;;;;;5122388;27;45390;-66
2022/08/23 03:56:34;;;;;;;;;4.00;3.00;;;;;;;;5119412;27;45533;-65
2022/08/23 03:59:00;;;;;;;;;7.00;5.00;;;;;;;;5114437;27;45328;-66
2022/08/23 04:01:26;;;;;;;;;6.33;5.67;;;;;;;;5117440;27;45285;-66
2022/08/23 04:03:51;;;;;;;;;2.00;2.00;;;;;;;;5120098;27;45450;-66
2022/08/23 04:06:17;;;;;;;;;1.33;1.33;;;;;;;;5122414;27;46325;-65
2022/08/23 04:08:43;;;;;;;;;2.00;2.00;;;;;;;;5117017;27;45400;-65
2022/08/23 04:11:08;;;;;;;;;1.00;1.00;;;;;;;;5120905;27;45266;-65
2022/08/23 04:13:34;;;;;;;;;3.00;3.00;;;;;;;;5122286;27;45375;-66
2022/08/23 04:16:02;;;;;;;;;2.33;2.33;;;;;;;;5121613;27;47290;-66
2022/08/23 04:18:29;;;;;;;;;1.00;1.00;;;;;;;;5113432;27;45457;-66
2022/08/23 04:20:54;;;;;;;;;1.67;1.00;;;;;;;;5118474;27;45412;-66
2022/08/23 04:23:19;;;;;;;;;2.00;2.00;;;;;;;;5111228;27;45636;-66
2022/08/23 04:25:44;;;;;;;;;1.00;1.00;;;;;;;;5108642;27;45485;-65
2022/08/23 04:28:10;;;;;;;;;1.00;1.00;;;;;;;;5110338;27;47528;-66
2022/08/23 04:30:35;;;;;;;;;4.00;2.00;;;;;;;;5114750;27;45320;-65
2022/08/23 04:33:00;;;;;;;;;1.00;1.00;;;;;;;;5110422;27;45412;-65
2022/08/23 04:35:25;;;;;;;;;3.00;2.00;;;;;;;;5123917;27;45859;-66
2022/08/23 04:37:51;;;;;;;;;3.00;3.00;;;;;;;;5116699;27;45321;-66
2022/08/23 04:43:00;;;;;;;;;3.00;3.00;;;;;;;;5111756;27;48014;-66
2022/08/23 04:45:26;;;;;;;;;5.33;3.33;;;;;;;;5119405;27;46081;-66
2022/08/23 04:47:51;;;;;;;;;3.67;3.67;;;;;;;;5112859;27;45439;-66
2022/08/23 04:50:16;;;;;;;;;2.67;2.00;;;;;;;;5121312;27;45488;-65
2022/08/23 04:52:42;;;;;;;;;5.00;4.00;;;;;;;;5118107;27;45356;-65
2022/08/23 04:55:07;;;;;;;;;3.00;3.00;;;;;;;;5123008;27;46430;-64
2022/08/23 04:57:32;;;;;;;;;5.33;3.33;;;;;;;;5118874;27;45339;-66
2022/08/23 04:59:58;;;;;;;;;2.67;2.67;;;;;;;;5110572;27;45480;-65
2022/08/23 05:02:23;;;;;;;;;2.00;2.00;;;;;;;;5108498;27;45383;-64
2022/08/23 05:04:48;;;;;;;;;2.33;2.00;;;;;;;;5112644;27;46309;-65
2022/08/23 05:07:14;;;;;;;;;4.00;3.00;;;;;;;;5109590;27;45343;-64
2022/08/23 05:09:39;;;;;;;;;2.00;2.00;;;;;;;;5121071;27;45369;-65
2022/08/23 05:12:05;;;;;;;;;2.33;2.33;;;;;;;;5112167;27;45457;-65
2022/08/23 05:14:30;;;;;;;;;2.00;2.00;;;;;;;;5116967;27;46324;-65
2022/08/23 05:16:56;;;;;;;;;3.67;3.00;;;;;;;;5120122;27;45275;-65
2022/08/23 05:19:21;;;;;;;;;4.00;4.00;;;;;;;;5118656;27;45346;-65
2022/08/23 05:21:46;;;;;;;;;4.00;2.00;;;;;;;;5120320;27;45417;-65
2022/08/23 05:24:12;;;;;;;;;2.67;2.67;;;;;;;;5114710;27;45907;-65
2022/08/23 05:26:37;;;;;;;;;2.00;2.00;;;;;;;;5122466;27;45706;-65
2022/08/23 05:29:02;;;;;;;;;2.00;2.00;;;;;;;;5117453;27;45437;-66
2022/08/23 05:31:29;;;;;;;;;4.00;4.00;;;;;;;;5113512;27;45366;-65
2022/08/23 05:33:54;;;;;;;;;3.00;3.00;;;;;;;;5113903;27;46082;-65
2022/08/23 05:36:20;;;;;;;;;5.00;3.00;;;;;;;;5115103;27;45250;-66
2022/08/23 05:38:46;;;;;;;;;9.33;8.00;;;;;;;;5111963;27;45277;-67
2022/08/23 05:41:11;;;;;;;;;6.67;6.00;;;;;;;;5116396;27;45473;-65
2022/08/23 05:43:36;;;;;;;;;8.67;7.00;;;;;;;;5117561;27;45345;-65
2022/08/23 05:46:08;;;;;;;;;6.00;5.33;;;;;;;;5112484;27;45227;-65
2022/08/23 05:48:34;;;;;;;;;9.00;9.00;;;;;;;;5116662;27;45411;-67
2022/08/23 05:51:09;;;;;;;;;11.33;8.33;;;;;;;;5123993;27;45576;-66
2022/08/23 05:53:35;;;;;;;;;13.00;10.00;;;;;;;;5118596;27;46132;-66
2022/08/23 05:56:14;;;;;;;;;16.33;14.67;;;;;;;;5121647;27;45414;-66
2022/08/23 05:58:40;;;;;;;;;18.00;14.00;;;;;;;;5116281;27;45382;-66
2022/08/23 06:01:06;;;;;;;;;15.33;12.00;;;;;;;;5121263;27;45410;-66
2022/08/23 06:03:31;;;;;;;;;14.67;13.00;;;;;;;;5119348;27;46399;-66
2022/08/23 06:05:57;;;;;;;;;13.33;12.67;;;;;;;;5109520;27;45296;-66
2022/08/23 06:08:22;;;;;;;;;12.00;10.67;;;;;;;;5115904;27;45456;-66
2022/08/23 06:10:47;;;;;;;;;11.33;11.00;;;;;;;;5111641;27;45354;-66
2022/08/23 06:13:12;;;;;;;;;9.67;9.67;;;;;;;;5114602;27;46111;-66
2022/08/23 06:15:41;;;;;;;;;9.00;9.00;;;;;;;;5111612;27;45243;-66
2022/08/23 06:18:07;;;;;;;;;12.33;9.00;;;;;;;;5113187;27;45309;-66
2022/08/23 06:20:32;;;;;;;;;7.33;7.33;;;;;;;;5113317;27;45236;-66
2022/08/23 06:22:57;;;;;;;;;7.00;7.00;;;;;;;;5118623;27;46273;-66
2022/08/23 06:25:22;;;;;;;;;6.00;6.00;;;;;;;;5115467;27;45204;-66
2022/08/23 06:27:47;;;;;;;;;9.67;8.00;;;;;;;;5117875;27;45280;-66
2022/08/23 06:30:13;;;;;;;;;11.33;9.67;;;;;;;;5120085;27;45419;-67
2022/08/23 06:32:38;;;;;;;;;11.67;9.33;;;;;;;;5121611;27;45344;-65
2022/08/23 06:35:03;;;;;;;;;9.00;9.00;;;;;;;;5120204;27;45249;-64
2022/08/23 06:37:29;;;;;;;;;7.33;7.33;;;;;;;;5120041;27;45387;-65
2022/08/23 06:39:56;;;;;;;;;8.67;7.00;;;;;;;;5119925;27;45181;-65
2022/08/23 06:42:23;;;;;;;;;9.00;8.00;;;;;;;;5109043;27;46559;-65
2022/08/23 06:44:49;;;;;;;;;7.33;7.00;;;;;;;;5115125;27;45341;-65
2022/08/23 06:47:15;;;;;;;;;13.00;10.00;;;;;;;;5116141;27;45305;-66
2022/08/23 06:49:41;;;;;;;;;7.33;6.33;;;;;;;;5106760;27;45554;-65
2022/08/23 06:52:07;;;;;;;;;7.00;7.00;;;;;;;;5118826;27;45532;-66
2022/08/23 06:54:33;;;;;;;;;5.67;5.67;;;;;;;;5117280;27;45306;-65
2022/08/23 06:56:59;;;;;;;;;7.67;7.67;;;;;;;;5120874;27;45626;-65
2022/08/23 06:59:24;;;;;;;;;9.67;7.67;;;;;;;;5114574;27;45342;-65
2022/08/23 07:01:57;;;;;;;;;8.00;8.00;;;;;;;;5123814;27;45328;-65
2022/08/23 07:04:24;;;;;;;;;13.67;11.00;;;;;;;;5117054;27;45302;-65
2022/08/23 07:06:50;;;;;;;;;10.00;8.33;;;;;;;;5107132;27;45249;-65
2022/08/23 07:09:17;;;;;;;;;12.67;11.67;;;;;;;;5120053;27;45625;-65
2022/08/23 07:11:42;;;;;;;;;8.00;7.00;;;;;;;;5109076;27;46682;-65
2022/08/23 07:14:10;;;;;;;;;9.67;9.67;;;;;;;;5113902;27;45300;-65
2022/08/23 07:16:40;;;;;;;;;10.00;10.00;;;;;;;;5113493;27;45315;-65
2022/08/23 07:19:05;;;;;;;;;12.00;11.00;;;;;;;;5114231;27;45642;-65
2022/08/23 07:21:31;;;;;;;;;9.67;8.67;;;;;;;;5116783;27;46186;-65
2022/08/23 07:23:56;;;;;;;;;20.67;16.33;;;;;;;;5112395;27;45297;-66
2022/08/23 07:26:22;;;;;;;;;9.33;9.00;;;;;;;;5121168;27;45355;-65
2022/08/23 07:28:47;;;;;;;;;7.00;6.33;;;;;;;;5118826;27;46571;-65
2022/08/23 07:31:13;;;;;;;;;7.00;7.00;;;;;;;;5121663;27;46285;-65
2022/08/23 07:33:39;;;;;;;;;10.00;7.00;;;;;;;;5122046;27;45456;-65
2022/08/23 07:36:04;;;;;;;;;11.00;9.33;;;;;;;;5121613;27;45488;-65
2022/08/23 07:38:30;;;;;;;;;12.00;11.33;;;;;;;;5112193;27;45375;-65
2022/08/23 07:40:55;;;;;;;;;13.33;10.00;;;;;;;;5123452;27;46907;-65
2022/08/23 07:43:20;;;;;;;;;10.33;9.33;;;;;;;;5119012;27;45421;-65
2022/08/23 07:45:47;;;;;;;;;10.33;7.00;;;;;;;;5115973;27;45297;-65
2022/08/23 07:48:12;;;;;;;;;8.33;8.33;;;;;;;;5116942;27;45288;-65
2022/08/23 07:50:39;;;;;;;;;9.00;8.67;;;;;;;;5122774;27;46967;-66
2022/08/23 07:53:04;;;;;;;;;7.00;7.00;;;;;;;;5113164;27;45288;-66
2022/08/23 07:55:29;;;;;;;;;8.00;8.00;;;;;;;;5121935;27;45405;-66
2022/08/23 07:57:55;;;;;;;;;13.00;9.67;;;;;;;;5116606;27;45184;-66
2022/08/23 08:00:20;;;;;;;;;14.33;11.67;;;;;;;;5121185;27;45398;-66
2022/08/23 08:02:45;;;;;;;;;8.00;5.67;;;;;;;;5118004;27;45373;-66
2022/08/23 08:05:10;;;;;;;;;12.00;6.67;;;;;;;;5121954;27;45321;-66
2022/08/23 08:07:35;;;;;;;;;12.33;10.00;;;;;;;;5120009;27;45236;-66
2022/08/23 08:10:01;;;;;;;;;11.33;9.00;;;;;;;;5121609;27;46883;-66
2022/08/23 08:12:27;;;;;;;;;7.00;7.00;;;;;;;;5116180;27;45365;-66
2022/08/23 08:14:53;;;;;;;;;9.67;7.67;;;;;;;;5113654;27;45431;-66
2022/08/23 08:17:18;;;;;;;;;4.00;4.00;;;;;;;;5114246;27;45431;-66
2022/08/23 08:19:43;;;;;;;;;7.00;5.67;;;;;;;;5115889;27;46060;-66
2022/08/23 08:22:09;;;;;;;;;5.00;5.00;;;;;;;;5114400;27;45332;-66
2022/08/23 08:24:34;;;;;;;;;7.33;6.67;;;;;;;;5117674;27;45662;-66
2022/08/23 08:26:59;;;;;;;;;4.00;4.00;;;;;;;;5116998;27;45345;-66
2022/08/23 08:29:24;;;;;;;;;6.00;5.00;;;;;;;;5116904;27;45619;-66
2022/08/23 08:31:50;;;;;;;;;7.33;6.00;;;;;;;;5120093;27;45379;-66
2022/08/23 08:34:16;;;;;;;;;7.33;6.00;;;;;;;;5118009;27;45332;-66
2022/08/23 08:36:42;;;;;;;;;8.00;7.00;;;;;;;;5124993;27;45441;-66
2022/08/23 08:39:08;;;;;;;;;9.67;7.00;;;;;;;;5116270;27;46107;-66
2022/08/23 08:41:33;;;;;;;;;6.00;6.00;;;;;;;;5113681;27;45315;-65
2022/08/23 08:44:02;;;;;;;;;7.00;6.67;;;;;;;;5115851;27;45193;-66
2022/08/23 08:46:37;;;;;;;;;7.33;5.33;;;;;;;;5116335;27;45361;-66
2022/08/23 08:49:04;;;;;;;;;7.00;7.00;;;;;;;;5115486;27;47593;-66
2022/08/23 08:51:48;;;;;;;;;6.00;6.00;;;;;;;;5117424;27;45400;-66
2022/08/23 08:54:15;;;;;;;;;4.33;4.33;;;;;;;;5120191;27;45425;-66
2022/08/23 08:56:42;;;;;;;;;7.00;5.33;;;;;;;;5119776;27;45410;-66
2022/08/23 08:59:14;;;;;;;;;6.67;5.33;;;;;;;;5119149;27;46962;-66
2022/08/23 09:01:40;;;;;;;;;3.00;2.67;;;;;;;;5121113;27;45296;-66
2022/08/23 09:04:06;;;;;;;;;5.00;3.67;;;;;;;;5117773;27;45361;-64
2022/08/23 09:06:31;;;;;;;;;6.33;3.67;;;;;;;;5123252;27;45551;-67
2022/08/23 09:09:03;;;;;;;;;4.00;4.00;;;;;;;;5119969;27;45426;-66
2022/08/23 09:11:39;;;;;;;;;10.00;7.00;;;;;;;;5104654;27;45421;-64
2022/08/23 09:14:07;;;;;;;;;6.00;5.00;;;;;;;;5118254;27;45434;-65
2022/08/23 09:16:38;;;;;;;;;6.33;5.67;;;;;;;;5108135;27;45232;-67
2022/08/23 09:19:03;;;;;;;;;5.00;4.00;;;;;;;;5118765;27;45519;-66
2022/08/23 09:21:47;;;;;;;;;5.33;4.33;;;;;;;;5110275;27;46455;-66
2022/08/23 09:24:12;;;;;;;;;6.00;5.00;;;;;;;;5121269;27;45482;-67
2022/08/23 09:26:38;;;;;;;;;9.33;6.67;;;;;;;;5112357;27;45318;-65
2022/08/23 09:29:17;;;;;;;;;7.00;6.67;;;;;;;;5122102;27;45585;-67
2022/08/23 09:32:03;;;;;;;;;4.67;4.67;;;;;;;;5114401;27;45295;-67
2022/08/23 09:34:28;;;;;;;;;5.00;5.00;;;;;;;;5116710;27;45517;-67
2022/08/23 09:37:04;;;;;;;;;4.00;4.00;;;;;;;;5118071;27;45230;-67
2022/08/23 09:39:31;;;;;;;;;4.67;4.67;;;;;;;;5118201;27;45379;-67
2022/08/23 09:41:56;;;;;;;;;5.67;5.67;;;;;;;;5111098;27;45623;-67
2022/08/23 09:44:39;;;;;;;;;8.00;8.00;;;;;;;;5116185;27;45336;-67
2022/08/23 09:47:10;;;;;;;;;4.33;4.33;;;;;;;;5113010;27;45161;-67
2022/08/23 09:49:35;;;;;;;;;11.33;11.00;;;;;;;;5117139;27;46195;-67
2022/08/23 09:52:11;;;;;;;;;6.00;6.00;;;;;;;;5114706;27;45527;-67
2022/08/23 09:54:40;;;;;;;;;9.00;7.33;;;;;;;;5121833;27;45443;-67
2022/08/23 09:57:08;;;;;;;;;6.00;4.33;;;;;;;;5116496;27;45473;-67
2022/08/23 09:59:46;;;;;;;;;5.00;5.00;;;;;;;;5119211;27;46107;-67
2022/08/23 10:02:21;;;;;;;;;6.67;5.00;;;;;;;;5118868;27;45403;-67
2022/08/23 10:04:52;;;;;;;;;5.00;5.00;;;;;;;;5120895;27;45498;-67
2022/08/23 10:07:20;;;;;;;;;5.00;5.00;;;;;;;;5121032;27;45526;-66
2022/08/23 10:09:45;;;;;;;;;7.67;5.33;;;;;;;;5120581;27;48167;-67
2022/08/23 10:12:11;;;;;;;;;3.00;3.00;;;;;;;;5112783;27;45437;-66
2022/08/23 10:14:36;;;;;;;;;4.33;4.33;;;;;;;;5117353;27;45481;-67
2022/08/23 10:17:01;;;;;;;;;6.00;6.00;;;;;;;;5107211;27;45576;-66
2022/08/23 10:19:38;;;;;;;;;6.00;4.67;;;;;;;;5119928;27;45598;-66
2022/08/23 10:22:09;;;;;;;;;6.00;4.00;;;;;;;;5108715;27;45447;-67
2022/08/23 10:24:43;;;;;;;;;4.00;4.00;;;;;;;;5117358;27;45445;-66
2022/08/23 10:30:02;;;;;;;;;4.00;4.00;;;;;;;;5117193;27;45393;-65
2022/08/23 10:32:46;;;;;;;;;2.00;2.00;;;;;;;;5110240;27;45332;-66
2022/08/23 10:35:23;;;;;;;;;9.67;9.67;;;;;;;;5116545;27;45410;-65
2022/08/23 10:38:09;;;;;;;;;6.00;6.00;;;;;;;;5117621;27;45313;-66
2022/08/23 10:40:40;;;;;;;;;3.00;3.00;;;;;;;;5086409;27;46511;-65
2022/08/23 10:43:24;;;;;;;;;4.00;4.00;;;;;;;;5112360;27;45348;-66
2022/08/23 10:45:49;;;;;;;;;3.67;3.00;;;;;;;;5119443;27;45443;-66
2022/08/23 10:48:27;;;;;;;;;4.33;4.00;;;;;;;;5115512;27;45209;-66
2022/08/23 10:50:58;;;;;;;;;2.00;2.00;;;;;;;;5124992;27;46711;-66
2022/08/23 10:53:30;;;;;;;;;2.00;2.00;;;;;;;;5121864;27;45403;-66
2022/08/23 10:56:03;;;;;;;;;5.00;3.33;;;;;;;;5124679;27;45336;-66
2022/08/23 10:58:34;;;;;;;;;3.00;3.00;;;;;;;;5122935;27;45548;-65
2022/08/23 11:01:00;;;;;;;;;4.33;4.33;;;;;;;;5118727;27;45245;-66
2022/08/23 11:03:25;;;;;;;;;2.00;2.00;;;;;;;;5117389;27;45407;-66
2022/08/23 11:06:09;;;;;;;;;2.33;2.33;;;;;;;;5121053;27;45170;-66
2022/08/23 11:08:40;;;;;;;;;3.00;3.00;;;;;;;;5121894;27;45491;-66
2022/08/23 11:11:26;;;;;;;;;5.00;3.67;;;;;;;;5121454;27;47140;-65
2022/08/23 11:13:52;;;;;;;;;5.67;4.67;;;;;;;;5117191;27;45382;-65
2022/08/23 11:16:27;;;;;;;;;9.00;6.67;;;;;;;;5108904;27;45424;-66
2022/08/23 11:18:53;;;;;;;;;3.00;3.00;;;;;;;;5119780;27;45317;-65
2022/08/23 11:21:18;;;;;;;;;2.67;2.67;;;;;;;;5113761;27;46450;-65
2022/08/23 11:23:56;;;;;;;;;2.00;2.00;;;;;;;;5115533;27;45375;-66
2022/08/23 11:26:22;;;;;;;;;1.67;1.67;;;;;;;;5118188;27;45353;-66
2022/08/23 11:28:49;;;;;;;;;2.00;2.00;;;;;;;;5118656;27;45261;-65
2022/08/23 11:31:27;;;;;;;;;1.00;1.00;;;;;;;;5119523;27;46168;-65
2022/08/23 11:33:58;;;;;;;;;3.00;3.00;;;;;;;;5112851;27;45296;-66
2022/08/23 11:36:26;;;;;;;;;0.00;0.00;;;;;;;;5115535;27;45315;-65
2022/08/23 11:38:51;;;;;;;;;0.67;0.67;;;;;;;;5113788;27;45582;-66
2022/08/23 11:41:24;;;;;;;;;2.67;2.67;;;;;;;;5115733;27;46075;-66
2022/08/23 11:43:55;;;;;;;;;2.00;2.00;;;;;;;;5115311;27;45563;-66
2022/08/23 11:46:26;;;;;;;;;3.00;3.00;;;;;;;;5116352;27;45336;-66
2022/08/23 11:49:03;;;;;;;;;4.33;2.67;;;;;;;;5115422;27;45329;-66
2022/08/23 11:51:44;;;;;;;;;0.00;0.00;;;;;;;;5118348;27;45356;-66
2022/08/23 11:54:21;;;;;;;;;1.67;1.67;;;;;;;;5119016;27;45452;-66
2022/08/23 11:57:02;;;;;;;;;3.00;3.00;;;;;;;;5119231;27;45344;-66
2022/08/23 11:59:38;;;;;;;;;1.33;1.33;;;;;;;;5122703;27;46107;-66
2022/08/23 12:02:23;;;;;;;;;1.00;1.00;;;;;;;;5122742;27;46338;-66
2022/08/23 12:04:51;;;;;;;;;3.00;1.00;;;;;;;;5118291;27;45529;-69
2022/08/23 12:07:37;;;;;;;;;1.67;1.67;;;;;;;;5121144;27;45409;-66
2022/08/23 12:10:03;;;;;;;;;3.00;1.67;;;;;;;;5117036;27;45505;-66
2022/08/23 12:12:30;;;;;;;;;2.00;2.00;;;;;;;;5108608;27;45383;-66
2022/08/23 12:14:58;;;;;;;;;1.67;1.67;;;;;;;;5118755;27;45284;-67
2022/08/23 12:17:24;;;;;;;;;0.33;0.33;;;;;;;;5116571;27;45764;-66
2022/08/23 12:19:52;;;;;;;;;0.00;0.00;;;;;;;;5114239;27;45391;-66
2022/08/23 12:22:22;;;;;;;;;1.00;1.00;;;;;;;;5116556;27;45559;-66
2022/08/23 12:24:53;;;;;;;;;2.00;2.00;;;;;;;;5113773;27;45434;-67
2022/08/23 12:27:33;;;;;;;;;1.00;1.00;;;;;;;;5114965;27;45287;-66
2022/08/23 12:29:58;;;;;;;;;1.67;1.67;;;;;;;;5117417;27;45353;-66
2022/08/23 12:32:26;;;;;;;;;2.00;2.00;;;;;;;;5117591;27;45423;-67
2022/08/23 12:34:57;;;;;;;;;2.00;2.00;;;;;;;;5120451;27;45375;-67
2022/08/23 12:37:35;;;;;;;;;1.67;1.67;;;;;;;;5121720;27;45540;-67
2022/08/23 12:40:01;;;;;;;;;1.33;0.67;;;;;;;;5117588;27;45410;-67
2022/08/23 12:42:34;;;;;;;;;1.00;0.67;;;;;;;;5107887;27;45932;-67
2022/08/23 12:45:01;;;;;;;;;1.00;1.00;;;;;;;;5117787;27;45422;-67
2022/08/23 12:47:26;;;;;;;;;3.67;1.67;;;;;;;;5110639;27;45295;-66
2022/08/23 12:49:53;;;;;;;;;1.33;1.00;;;;;;;;5120486;27;45370;-67
2022/08/23 12:52:22;;;;;;;;;0.67;0.67;;;;;;;;5119444;27;46840;-67
2022/08/23 12:54:49;;;;;;;;;2.67;1.33;;;;;;;;5117630;27;45462;-67
2022/08/23 12:57:17;;;;;;;;;1.00;1.00;;;;;;;;5114947;27;45383;-67
2022/08/23 12:59:46;;;;;;;;;1.00;1.00;;;;;;;;5121543;27;45742;-67
2022/08/23 13:02:16;;;;;;;;;2.67;2.00;;;;;;;;5116593;27;46374;-67
2022/08/23 13:04:42;;;;;;;;;2.67;2.67;;;;;;;;5122488;27;45350;-67
2022/08/23 13:07:10;;;;;;;;;1.00;0.00;;;;;;;;5119903;27;45401;-67
2022/08/23 13:09:37;;;;;;;;;0.67;0.67;;;;;;;;5122155;27;45569;-67
2022/08/23 13:12:03;;;;;;;;;0.33;0.33;;;;;;;;5113016;27;45692;-67
2022/08/23 13:14:31;;;;;;;;;0.00;0.00;;;;;;;;5117305;27;45332;-67
2022/08/23 13:17:11;;;;;;;;;3.67;2.67;;;;;;;;5106389;27;45413;-67
2022/08/23 13:19:36;;;;;;;;;0.67;0.67;;;;;;;;5118782;27;45371;-67
2022/08/23 13:22:08;;;;;;;;;1.00;1.00;;;;;;;;5108437;27;45399;-67
2022/08/23 13:24:35;;;;;;;;;2.00;2.00;;;;;;;;5118774;27;45237;-67
2022/08/23 13:27:10;;;;;;;;;2.33;1.67;;;;;;;;5115319;27;45374;-67
2022/08/23 13:29:46;;;;;;;;;1.00;1.00;;;;;;;;5120483;27;45602;-67
2022/08/23 13:32:30;;;;;;;;;1.00;1.00;;;;;;;;5113251;27;45364;-67
2022/08/23 13:35:15;;;;;;;;;0.67;0.67;;;;;;;;5117550;27;45291;-67
2022/08/23 13:37:43;;;;;;;;;1.00;1.00;;;;;;;;5108070;27;45438;-67
2022/08/23 13:40:13;;;;;;;;;1.33;1.33;;;;;;;;5118616;27;45505;-67
2022/08/23 13:42:47;;;;;;;;;0.00;0.00;;;;;;;;5117901;27;48252;-67
2022/08/23 13:45:19;;;;;;;;;1.33;1.33;;;;;;;;5119197;27;45387;-67
2022/08/23 13:47:55;;;;;;;;;1.00;1.00;;;;;;;;5116766;27;45245;-67
2022/08/23 13:50:22;;;;;;;;;2.00;2.00;;;;;;;;5114477;27;45382;-67
2022/08/23 13:52:47;;;;;;;;;1.67;1.67;;;;;;;;5112752;27;45388;-67
2022/08/23 13:55:13;;;;;;;;;5.00;4.00;;;;;;;;5120566;27;45356;-67
2022/08/23 13:57:39;;;;;;;;;2.00;2.00;;;;;;;;5118392;27;45724;-66
2022/08/23 14:00:08;;;;;;;;;1.67;1.67;;;;;;;;5121820;27;45318;-67
2022/08/23 14:02:33;;;;;;;;;0.67;0.33;;;;;;;;5115335;27;45330;-67
2022/08/23 14:04:58;;;;;;;;;0.67;0.67;;;;;;;;5122713;27;45366;-66
2022/08/23 14:07:23;;;;;;;;;0.00;0.00;;;;;;;;5118015;27;45253;-67
2022/08/23 14:09:49;;;;;;;;;1.00;1.00;;;;;;;;5123306;27;45293;-67
2022/08/23 14:12:16;;;;;;;;;1.00;1.00;;;;;;;;5124383;27;45415;-66
2022/08/23 14:14:42;;;;;;;;;1.00;1.00;;;;;;;;5121444;27;45297;-67
2022/08/23 14:17:08;;;;;;;;;0.67;0.67;;;;;;;;5108924;27;45278;-67
2022/08/23 14:19:34;;;;;;;;;2.00;1.00;;;;;;;;5121306;27;45282;-67
2022/08/23 14:21:59;;;;;;;;;1.33;1.00;;;;;;;;5110942;27;45363;-66
2022/08/23 14:24:25;;;;;;;;;0.67;0.00;;;;;;;;5121476;27;45302;-66
2022/08/23 14:26:50;;;;;;;;;0.67;0.67;;;;;;;;5112918;27;45228;-67
2022/08/23 14:29:15;;;;;;;;;2.00;2.00;;;;;;;;5120547;27;45531;-67
2022/08/23 14:31:40;;;;;;;;;1.33;1.00;;;;;;;;5116143;27;45693;-67
2022/08/23 14:34:06;;;;;;;;;1.00;1.00;;;;;;;;5119311;27;45334;-66
2022/08/23 14:36:31;;;;;;;;;1.00;1.00;;;;;;;;5120624;27;45643;-66
2022/08/23 14:38:56;;;;;;;;;1.00;1.00;;;;;;;;5117048;27;45369;-66
2022/08/23 14:41:24;;;;;;;;;2.00;1.00;;;;;;;;5123931;27;46633;-67
2022/08/23 14:43:49;;;;;;;;;1.33;1.00;;;;;;;;5118162;27;45450;-67
2022/08/23 14:46:15;;;;;;;;;1.67;1.67;;;;;;;;5126525;27;45431;-67
2022/08/23 14:48:40;;;;;;;;;1.00;1.00;;;;;;;;5115128;27;45462;-67
2022/08/23 14:51:10;;;;;;;;;1.00;1.00;;;;;;;;5112946;27;47816;-67
2022/08/23 14:53:35;;;;;;;;;4.67;2.33;;;;;;;;5116423;27;45332;-67
2022/08/23 14:56:01;;;;;;;;;1.00;1.00;;;;;;;;5114922;27;45414;-67